sensor_id;sensor_type;location;lat;lon;timestamp;P1;durP1;ratioP1;P2;durP2;ratioP2
65202;SDS011;51788;45.124;38.966;2023-12-04T00:02:22;18.58;;;8.07;;
65202;SDS011;51788;45.124;38.966;2023-12-04T00:04:48;15.18;;;7.18;;
65202;SDS011;51788;45.124;38.966;2023-12-04T00:07:14;17.17;;;8.85;;
65202;SDS011;51788;45.124;38.966;2023-12-04T00:09:40;15.32;;;8.98;;
65202;SDS011;51788;45.124;38.966;2023-12-04T00:12:06;15.55;;;8.50;;
65202;SDS011;51788;45.124;38.966;2023-12-04T00:14:32;17.75;;;7.97;;
65202;SDS011;51788;45.124;38.966;2023-12-04T00:16:58;22.98;;;8.88;;
65202;SDS011;51788;45.124;38.966;2023-12-04T00:19:24;36.72;;;10.25;;
65202;SDS011;51788;45.124;38.966;2023-12-04T00:21:50;22.15;;;8.48;;
65202;SDS011;51788;45.124;38.966;2023-12-04T00:24:16;18.00;;;8.90;;
65202;SDS011;51788;45.124;38.966;2023-12-04T00:26:42;29.88;;;10.55;;
65202;SDS011;51788;45.124;38.966;2023-12-04T00:29:08;20.30;;;9.13;;
65202;SDS011;51788;45.124;38.966;2023-12-04T00:31:34;24.05;;;9.10;;
65202;SDS011;51788;45.124;38.966;2023-12-04T00:34:00;14.07;;;7.90;;
65202;SDS011;51788;45.124;38.966;2023-12-04T00:36:26;18.23;;;9.02;;
65202;SDS011;51788;45.124;38.966;2023-12-04T00:38:52;19.73;;;8.88;;
65202;SDS011;51788;45.124;38.966;2023-12-04T00:41:18;14.48;;;8.63;;
65202;SDS011;51788;45.124;38.966;2023-12-04T00:43:44;23.50;;;8.63;;
65202;SDS011;51788;45.124;38.966;2023-12-04T00:46:10;15.20;;;9.13;;
65202;SDS011;51788;45.124;38.966;2023-12-04T00:48:36;17.98;;;8.55;;
65202;SDS011;51788;45.124;38.966;2023-12-04T00:51:02;21.98;;;8.90;;
65202;SDS011;51788;45.124;38.966;2023-12-04T00:53:28;20.75;;;9.48;;
65202;SDS011;51788;45.124;38.966;2023-12-04T00:55:54;19.58;;;8.45;;
65202;SDS011;51788;45.124;38.966;2023-12-04T00:58:20;18.83;;;8.32;;
65202;SDS011;51788;45.124;38.966;2023-12-04T01:00:46;23.02;;;9.18;;
65202;SDS011;51788;45.124;38.966;2023-12-04T01:03:14;19.05;;;9.75;;
65202;SDS011;51788;45.124;38.966;2023-12-04T01:05:40;19.67;;;10.10;;
65202;SDS011;51788;45.124;38.966;2023-12-04T01:08:06;21.80;;;10.23;;
65202;SDS011;51788;45.124;38.966;2023-12-04T01:10:32;16.25;;;9.10;;
65202;SDS011;51788;45.124;38.966;2023-12-04T01:12:58;23.48;;;9.40;;
65202;SDS011;51788;45.124;38.966;2023-12-04T01:15:24;14.90;;;9.85;;
65202;SDS011;51788;45.124;38.966;2023-12-04T01:17:50;18.85;;;9.40;;
65202;SDS011;51788;45.124;38.966;2023-12-04T01:20:16;14.77;;;9.48;;
65202;SDS011;51788;45.124;38.966;2023-12-04T01:22:42;25.20;;;10.63;;
65202;SDS011;51788;45.124;38.966;2023-12-04T01:25:08;16.88;;;10.40;;
65202;SDS011;51788;45.124;38.966;2023-12-04T01:27:35;19.27;;;9.00;;
65202;SDS011;51788;45.124;38.966;2023-12-04T01:30:03;19.42;;;9.57;;
65202;SDS011;51788;45.124;38.966;2023-12-04T01:32:31;19.95;;;9.27;;
65202;SDS011;51788;45.124;38.966;2023-12-04T01:34:57;24.48;;;10.30;;
65202;SDS011;51788;45.124;38.966;2023-12-04T01:37:23;17.25;;;9.63;;
65202;SDS011;51788;45.124;38.966;2023-12-04T01:39:49;24.02;;;10.98;;
65202;SDS011;51788;45.124;38.966;2023-12-04T01:42:14;23.48;;;11.77;;
65202;SDS011;51788;45.124;38.966;2023-12-04T01:44:40;17.88;;;10.35;;
65202;SDS011;51788;45.124;38.966;2023-12-04T01:47:06;20.38;;;9.77;;
65202;SDS011;51788;45.124;38.966;2023-12-04T01:49:33;17.65;;;9.63;;
65202;SDS011;51788;45.124;38.966;2023-12-04T01:51:59;21.65;;;11.55;;
65202;SDS011;51788;45.124;38.966;2023-12-04T01:54:25;27.45;;;13.73;;
65202;SDS011;51788;45.124;38.966;2023-12-04T01:56:51;23.17;;;13.45;;
65202;SDS011;51788;45.124;38.966;2023-12-04T01:59:17;23.52;;;11.90;;
65202;SDS011;51788;45.124;38.966;2023-12-04T02:01:44;23.95;;;10.10;;
65202;SDS011;51788;45.124;38.966;2023-12-04T02:04:10;17.75;;;10.70;;
65202;SDS011;51788;45.124;38.966;2023-12-04T02:06:36;23.77;;;11.95;;
65202;SDS011;51788;45.124;38.966;2023-12-04T02:09:02;16.35;;;11.35;;
65202;SDS011;51788;45.124;38.966;2023-12-04T02:11:28;15.98;;;11.55;;
65202;SDS011;51788;45.124;38.966;2023-12-04T02:13:54;26.88;;;11.43;;
65202;SDS011;51788;45.124;38.966;2023-12-04T02:16:21;19.60;;;11.00;;
65202;SDS011;51788;45.124;38.966;2023-12-04T02:18:49;23.17;;;14.48;;
65202;SDS011;51788;45.124;38.966;2023-12-04T02:21:16;24.02;;;11.40;;
65202;SDS011;51788;45.124;38.966;2023-12-04T02:23:41;22.02;;;11.07;;
65202;SDS011;51788;45.124;38.966;2023-12-04T02:26:13;18.33;;;10.82;;
65202;SDS011;51788;45.124;38.966;2023-12-04T02:28:46;20.65;;;10.55;;
65202;SDS011;51788;45.124;38.966;2023-12-04T02:31:19;16.20;;;11.35;;
65202;SDS011;51788;45.124;38.966;2023-12-04T02:33:48;22.75;;;11.50;;
65202;SDS011;51788;45.124;38.966;2023-12-04T02:36:21;30.58;;;11.55;;
65202;SDS011;51788;45.124;38.966;2023-12-04T02:38:50;28.75;;;11.57;;
65202;SDS011;51788;45.124;38.966;2023-12-04T02:41:16;25.60;;;11.32;;
65202;SDS011;51788;45.124;38.966;2023-12-04T02:43:43;17.20;;;10.13;;
65202;SDS011;51788;45.124;38.966;2023-12-04T02:46:09;25.17;;;11.60;;
65202;SDS011;51788;45.124;38.966;2023-12-04T02:48:35;20.27;;;9.93;;
65202;SDS011;51788;45.124;38.966;2023-12-04T02:51:03;27.17;;;9.95;;
65202;SDS011;51788;45.124;38.966;2023-12-04T02:53:29;25.60;;;11.25;;
65202;SDS011;51788;45.124;38.966;2023-12-04T02:55:55;30.95;;;12.05;;
65202;SDS011;51788;45.124;38.966;2023-12-04T02:58:21;30.90;;;12.43;;
65202;SDS011;51788;45.124;38.966;2023-12-04T03:00:47;24.58;;;11.27;;
65202;SDS011;51788;45.124;38.966;2023-12-04T03:03:13;21.73;;;11.68;;
65202;SDS011;51788;45.124;38.966;2023-12-04T03:05:39;23.88;;;11.25;;
65202;SDS011;51788;45.124;38.966;2023-12-04T03:08:05;20.25;;;10.75;;
65202;SDS011;51788;45.124;38.966;2023-12-04T03:10:31;23.67;;;11.27;;
65202;SDS011;51788;45.124;38.966;2023-12-04T03:12:57;25.13;;;10.57;;
65202;SDS011;51788;45.124;38.966;2023-12-04T03:15:23;20.88;;;10.23;;
65202;SDS011;51788;45.124;38.966;2023-12-04T03:17:49;32.22;;;10.85;;
65202;SDS011;51788;45.124;38.966;2023-12-04T03:20:14;23.35;;;10.48;;
65202;SDS011;51788;45.124;38.966;2023-12-04T03:22:40;30.10;;;12.85;;
65202;SDS011;51788;45.124;38.966;2023-12-04T03:25:06;16.83;;;11.82;;
65202;SDS011;51788;45.124;38.966;2023-12-04T03:27:33;29.45;;;11.82;;
65202;SDS011;51788;45.124;38.966;2023-12-04T03:29:59;20.65;;;11.52;;
65202;SDS011;51788;45.124;38.966;2023-12-04T03:32:25;19.88;;;10.60;;
65202;SDS011;51788;45.124;38.966;2023-12-04T03:34:51;28.90;;;12.20;;
65202;SDS011;51788;45.124;38.966;2023-12-04T03:37:16;20.10;;;13.13;;
65202;SDS011;51788;45.124;38.966;2023-12-04T03:39:42;47.42;;;14.98;;
65202;SDS011;51788;45.124;38.966;2023-12-04T03:42:08;25.52;;;12.65;;
65202;SDS011;51788;45.124;38.966;2023-12-04T03:44:34;26.80;;;12.82;;
65202;SDS011;51788;45.124;38.966;2023-12-04T03:47:00;29.15;;;12.90;;
65202;SDS011;51788;45.124;38.966;2023-12-04T03:49:26;25.27;;;13.52;;
65202;SDS011;51788;45.124;38.966;2023-12-04T03:51:52;31.40;;;14.82;;
65202;SDS011;51788;45.124;38.966;2023-12-04T03:54:18;32.50;;;16.58;;
65202;SDS011;51788;45.124;38.966;2023-12-04T03:56:44;29.17;;;14.27;;
65202;SDS011;51788;45.124;38.966;2023-12-04T03:59:10;36.75;;;15.07;;
65202;SDS011;51788;45.124;38.966;2023-12-04T04:01:36;24.85;;;13.68;;
65202;SDS011;51788;45.124;38.966;2023-12-04T04:04:02;25.70;;;12.75;;
65202;SDS011;51788;45.124;38.966;2023-12-04T04:06:28;24.15;;;12.68;;
65202;SDS011;51788;45.124;38.966;2023-12-04T04:08:54;26.92;;;11.93;;
65202;SDS011;51788;45.124;38.966;2023-12-04T04:11:20;24.77;;;14.50;;
65202;SDS011;51788;45.124;38.966;2023-12-04T04:13:46;21.33;;;10.80;;
65202;SDS011;51788;45.124;38.966;2023-12-04T04:16:14;16.38;;;10.50;;
65202;SDS011;51788;45.124;38.966;2023-12-04T04:18:41;24.42;;;10.98;;
65202;SDS011;51788;45.124;38.966;2023-12-04T04:21:08;15.05;;;10.30;;
65202;SDS011;51788;45.124;38.966;2023-12-04T04:23:34;25.90;;;10.85;;
65202;SDS011;51788;45.124;38.966;2023-12-04T04:26:01;18.85;;;10.57;;
65202;SDS011;51788;45.124;38.966;2023-12-04T04:28:27;20.42;;;12.27;;
65202;SDS011;51788;45.124;38.966;2023-12-04T04:30:53;23.63;;;13.18;;
65202;SDS011;51788;45.124;38.966;2023-12-04T04:33:19;56.88;;;16.83;;
65202;SDS011;51788;45.124;38.966;2023-12-04T04:35:45;40.97;;;18.58;;
65202;SDS011;51788;45.124;38.966;2023-12-04T04:38:11;63.53;;;24.98;;
65202;SDS011;51788;45.124;38.966;2023-12-04T04:40:37;41.70;;;20.33;;
65202;SDS011;51788;45.124;38.966;2023-12-04T04:43:07;47.40;;;21.27;;
65202;SDS011;51788;45.124;38.966;2023-12-04T04:45:34;34.33;;;17.70;;
65202;SDS011;51788;45.124;38.966;2023-12-04T04:48:00;36.25;;;20.23;;
65202;SDS011;51788;45.124;38.966;2023-12-04T04:50:25;23.20;;;14.65;;
65202;SDS011;51788;45.124;38.966;2023-12-04T04:52:51;21.45;;;14.10;;
65202;SDS011;51788;45.124;38.966;2023-12-04T04:55:17;39.35;;;14.60;;
65202;SDS011;51788;45.124;38.966;2023-12-04T04:57:44;36.05;;;12.52;;
65202;SDS011;51788;45.124;38.966;2023-12-04T05:00:10;23.67;;;11.82;;
65202;SDS011;51788;45.124;38.966;2023-12-04T05:02:36;19.38;;;11.90;;
65202;SDS011;51788;45.124;38.966;2023-12-04T05:05:02;19.15;;;11.15;;
65202;SDS011;51788;45.124;38.966;2023-12-04T05:07:29;15.43;;;10.40;;
65202;SDS011;51788;45.124;38.966;2023-12-04T05:09:55;18.83;;;9.75;;
65202;SDS011;51788;45.124;38.966;2023-12-04T05:12:21;18.40;;;11.45;;
65202;SDS011;51788;45.124;38.966;2023-12-04T05:14:47;14.70;;;9.05;;
65202;SDS011;51788;45.124;38.966;2023-12-04T05:17:13;16.88;;;9.90;;
65202;SDS011;51788;45.124;38.966;2023-12-04T05:19:39;16.67;;;9.70;;
65202;SDS011;51788;45.124;38.966;2023-12-04T05:22:05;25.10;;;12.18;;
65202;SDS011;51788;45.124;38.966;2023-12-04T05:24:32;26.83;;;12.93;;
65202;SDS011;51788;45.124;38.966;2023-12-04T05:26:58;23.98;;;13.05;;
65202;SDS011;51788;45.124;38.966;2023-12-04T05:29:24;23.20;;;12.57;;
65202;SDS011;51788;45.124;38.966;2023-12-04T05:31:50;36.33;;;12.23;;
65202;SDS011;51788;45.124;38.966;2023-12-04T05:34:16;21.73;;;12.00;;
65202;SDS011;51788;45.124;38.966;2023-12-04T05:36:42;43.30;;;9.55;;
65202;SDS011;51788;45.124;38.966;2023-12-04T05:39:08;28.65;;;12.52;;
65202;SDS011;51788;45.124;38.966;2023-12-04T05:41:34;24.17;;;12.52;;
65202;SDS011;51788;45.124;38.966;2023-12-04T05:43:59;35.78;;;12.75;;
65202;SDS011;51788;45.124;38.966;2023-12-04T05:46:25;33.17;;;12.23;;
65202;SDS011;51788;45.124;38.966;2023-12-04T05:48:51;38.92;;;13.88;;
65202;SDS011;51788;45.124;38.966;2023-12-04T05:51:17;31.42;;;13.68;;
65202;SDS011;51788;45.124;38.966;2023-12-04T05:53:43;30.08;;;13.50;;
65202;SDS011;51788;45.124;38.966;2023-12-04T05:56:09;24.92;;;11.77;;
65202;SDS011;51788;45.124;38.966;2023-12-04T05:58:36;26.48;;;11.57;;
65202;SDS011;51788;45.124;38.966;2023-12-04T06:01:02;28.85;;;11.65;;
65202;SDS011;51788;45.124;38.966;2023-12-04T06:03:28;29.42;;;11.65;;
65202;SDS011;51788;45.124;38.966;2023-12-04T06:05:54;29.92;;;13.38;;
65202;SDS011;51788;45.124;38.966;2023-12-04T06:08:20;31.63;;;12.07;;
65202;SDS011;51788;45.124;38.966;2023-12-04T06:10:46;33.33;;;11.75;;
65202;SDS011;51788;45.124;38.966;2023-12-04T06:13:12;26.65;;;10.52;;
65202;SDS011;51788;45.124;38.966;2023-12-04T06:15:38;23.27;;;10.40;;
65202;SDS011;51788;45.124;38.966;2023-12-04T06:18:04;28.60;;;11.23;;
65202;SDS011;51788;45.124;38.966;2023-12-04T06:20:30;35.63;;;11.50;;
65202;SDS011;51788;45.124;38.966;2023-12-04T06:22:56;33.33;;;11.27;;
65202;SDS011;51788;45.124;38.966;2023-12-04T06:25:22;31.90;;;12.43;;
65202;SDS011;51788;45.124;38.966;2023-12-04T06:27:48;22.02;;;10.88;;
65202;SDS011;51788;45.124;38.966;2023-12-04T06:30:15;21.85;;;9.90;;
65202;SDS011;51788;45.124;38.966;2023-12-04T06:32:41;19.92;;;8.90;;
65202;SDS011;51788;45.124;38.966;2023-12-04T06:35:07;15.52;;;8.55;;
65202;SDS011;51788;45.124;38.966;2023-12-04T06:37:34;19.20;;;9.52;;
65202;SDS011;51788;45.124;38.966;2023-12-04T06:40:03;30.38;;;10.93;;
65202;SDS011;51788;45.124;38.966;2023-12-04T06:42:31;13.25;;;8.60;;
65202;SDS011;51788;45.124;38.966;2023-12-04T06:44:57;14.68;;;10.18;;
65202;SDS011;51788;45.124;38.966;2023-12-04T06:47:24;19.23;;;10.57;;
65202;SDS011;51788;45.124;38.966;2023-12-04T06:49:50;15.00;;;9.32;;
65202;SDS011;51788;45.124;38.966;2023-12-04T06:52:16;22.02;;;12.27;;
65202;SDS011;51788;45.124;38.966;2023-12-04T06:54:42;16.05;;;9.60;;
65202;SDS011;51788;45.124;38.966;2023-12-04T06:57:08;14.32;;;10.10;;
65202;SDS011;51788;45.124;38.966;2023-12-04T06:59:34;16.35;;;10.10;;
65202;SDS011;51788;45.124;38.966;2023-12-04T07:02:00;9.80;;;8.10;;
65202;SDS011;51788;45.124;38.966;2023-12-04T07:04:26;14.52;;;9.52;;
65202;SDS011;51788;45.124;38.966;2023-12-04T07:06:52;21.10;;;10.77;;
65202;SDS011;51788;45.124;38.966;2023-12-04T07:09:17;10.85;;;7.93;;
65202;SDS011;51788;45.124;38.966;2023-12-04T07:11:43;12.80;;;7.63;;
65202;SDS011;51788;45.124;38.966;2023-12-04T07:14:09;18.67;;;9.68;;
65202;SDS011;51788;45.124;38.966;2023-12-04T07:16:40;13.00;;;8.50;;
65202;SDS011;51788;45.124;38.966;2023-12-04T07:19:07;15.75;;;8.70;;
65202;SDS011;51788;45.124;38.966;2023-12-04T07:21:34;13.10;;;9.70;;
65202;SDS011;51788;45.124;38.966;2023-12-04T07:24:01;12.95;;;7.85;;
65202;SDS011;51788;45.124;38.966;2023-12-04T07:26:27;15.40;;;8.35;;
65202;SDS011;51788;45.124;38.966;2023-12-04T07:28:53;15.93;;;10.68;;
65202;SDS011;51788;45.124;38.966;2023-12-04T07:31:19;18.45;;;8.98;;
65202;SDS011;51788;45.124;38.966;2023-12-04T07:33:45;18.13;;;7.68;;
65202;SDS011;51788;45.124;38.966;2023-12-04T07:36:11;11.15;;;7.55;;
65202;SDS011;51788;45.124;38.966;2023-12-04T07:38:37;16.02;;;8.30;;
65202;SDS011;51788;45.124;38.966;2023-12-04T07:41:03;7.20;;;6.53;;
65202;SDS011;51788;45.124;38.966;2023-12-04T07:43:29;12.75;;;8.43;;
65202;SDS011;51788;45.124;38.966;2023-12-04T07:45:55;11.05;;;8.55;;
65202;SDS011;51788;45.124;38.966;2023-12-04T07:48:23;12.82;;;8.15;;
65202;SDS011;51788;45.124;38.966;2023-12-04T07:50:48;13.32;;;9.23;;
65202;SDS011;51788;45.124;38.966;2023-12-04T07:53:14;9.38;;;7.60;;
65202;SDS011;51788;45.124;38.966;2023-12-04T07:55:40;17.20;;;8.93;;
65202;SDS011;51788;45.124;38.966;2023-12-04T07:58:06;15.82;;;8.65;;
65202;SDS011;51788;45.124;38.966;2023-12-04T08:00:32;21.30;;;12.07;;
65202;SDS011;51788;45.124;38.966;2023-12-04T08:02:58;15.77;;;10.50;;
65202;SDS011;51788;45.124;38.966;2023-12-04T08:05:24;18.60;;;11.13;;
65202;SDS011;51788;45.124;38.966;2023-12-04T08:07:52;15.95;;;10.25;;
65202;SDS011;51788;45.124;38.966;2023-12-04T08:10:18;12.82;;;9.38;;
65202;SDS011;51788;45.124;38.966;2023-12-04T08:12:45;18.48;;;8.80;;
65202;SDS011;51788;45.124;38.966;2023-12-04T08:15:11;13.40;;;8.07;;
65202;SDS011;51788;45.124;38.966;2023-12-04T08:17:37;16.25;;;9.18;;
65202;SDS011;51788;45.124;38.966;2023-12-04T08:20:03;14.88;;;8.23;;
65202;SDS011;51788;45.124;38.966;2023-12-04T08:22:30;16.98;;;9.95;;
65202;SDS011;51788;45.124;38.966;2023-12-04T08:24:57;9.00;;;7.03;;
65202;SDS011;51788;45.124;38.966;2023-12-04T08:27:23;12.27;;;8.77;;
65202;SDS011;51788;45.124;38.966;2023-12-04T08:29:50;17.80;;;9.60;;
65202;SDS011;51788;45.124;38.966;2023-12-04T08:32:16;11.98;;;7.60;;
65202;SDS011;51788;45.124;38.966;2023-12-04T08:34:42;9.23;;;7.43;;
65202;SDS011;51788;45.124;38.966;2023-12-04T08:37:08;11.68;;;7.82;;
65202;SDS011;51788;45.124;38.966;2023-12-04T08:39:34;11.65;;;8.32;;
65202;SDS011;51788;45.124;38.966;2023-12-04T08:42:00;27.75;;;10.38;;
65202;SDS011;51788;45.124;38.966;2023-12-04T08:44:26;43.75;;;14.32;;
65202;SDS011;51788;45.124;38.966;2023-12-04T08:46:52;11.13;;;7.65;;
65202;SDS011;51788;45.124;38.966;2023-12-04T08:49:18;11.57;;;9.32;;
65202;SDS011;51788;45.124;38.966;2023-12-04T08:51:44;13.38;;;9.20;;
65202;SDS011;51788;45.124;38.966;2023-12-04T08:54:10;15.93;;;12.30;;
65202;SDS011;51788;45.124;38.966;2023-12-04T08:56:36;15.50;;;9.27;;
65202;SDS011;51788;45.124;38.966;2023-12-04T08:59:03;16.45;;;8.98;;
65202;SDS011;51788;45.124;38.966;2023-12-04T09:01:29;14.45;;;8.85;;
65202;SDS011;51788;45.124;38.966;2023-12-04T09:03:55;8.77;;;6.43;;
65202;SDS011;51788;45.124;38.966;2023-12-04T09:06:21;9.27;;;6.75;;
65202;SDS011;51788;45.124;38.966;2023-12-04T09:08:47;15.25;;;7.10;;
65202;SDS011;51788;45.124;38.966;2023-12-04T09:11:13;11.00;;;6.20;;
65202;SDS011;51788;45.124;38.966;2023-12-04T09:13:39;11.05;;;6.53;;
65202;SDS011;51788;45.124;38.966;2023-12-04T09:16:05;8.00;;;7.20;;
65202;SDS011;51788;45.124;38.966;2023-12-04T09:18:32;19.88;;;9.07;;
65202;SDS011;51788;45.124;38.966;2023-12-04T09:20:58;11.82;;;7.25;;
65202;SDS011;51788;45.124;38.966;2023-12-04T09:23:24;9.60;;;6.75;;
65202;SDS011;51788;45.124;38.966;2023-12-04T09:25:50;19.25;;;6.35;;
65202;SDS011;51788;45.124;38.966;2023-12-04T09:28:16;8.65;;;7.50;;
65202;SDS011;51788;45.124;38.966;2023-12-04T09:30:42;16.13;;;6.10;;
65202;SDS011;51788;45.124;38.966;2023-12-04T09:33:08;14.20;;;6.72;;
65202;SDS011;51788;45.124;38.966;2023-12-04T09:35:34;23.83;;;7.28;;
65202;SDS011;51788;45.124;38.966;2023-12-04T09:38:00;10.10;;;7.68;;
65202;SDS011;51788;45.124;38.966;2023-12-04T09:40:26;15.40;;;9.38;;
65202;SDS011;51788;45.124;38.966;2023-12-04T09:42:52;6.50;;;5.55;;
65202;SDS011;51788;45.124;38.966;2023-12-04T09:45:19;11.82;;;8.23;;
65202;SDS011;51788;45.124;38.966;2023-12-04T09:47:47;15.23;;;8.05;;
65202;SDS011;51788;45.124;38.966;2023-12-04T09:50:14;5.25;;;4.85;;
65202;SDS011;51788;45.124;38.966;2023-12-04T09:52:42;9.50;;;7.80;;
65202;SDS011;51788;45.124;38.966;2023-12-04T09:55:08;42.88;;;9.05;;
65202;SDS011;51788;45.124;38.966;2023-12-04T09:57:35;8.27;;;6.30;;
65202;SDS011;51788;45.124;38.966;2023-12-04T10:00:02;7.80;;;6.25;;
65202;SDS011;51788;45.124;38.966;2023-12-04T10:02:36;8.52;;;5.95;;
65202;SDS011;51788;45.124;38.966;2023-12-04T10:05:03;9.70;;;6.40;;
65202;SDS011;51788;45.124;38.966;2023-12-04T10:07:31;7.78;;;6.57;;
65202;SDS011;51788;45.124;38.966;2023-12-04T10:09:57;11.00;;;5.97;;
65202;SDS011;51788;45.124;38.966;2023-12-04T10:12:23;8.98;;;6.40;;
65202;SDS011;51788;45.124;38.966;2023-12-04T10:15:07;22.05;;;6.72;;
65202;SDS011;51788;45.124;38.966;2023-12-04T10:17:36;11.50;;;7.85;;
65202;SDS011;51788;45.124;38.966;2023-12-04T10:20:14;10.15;;;7.75;;
65202;SDS011;51788;45.124;38.966;2023-12-04T10:23:18;16.02;;;8.25;;
65202;SDS011;51788;45.124;38.966;2023-12-04T10:25:37;8.50;;;7.03;;
65202;SDS011;51788;45.124;38.966;2023-12-04T10:28:10;13.85;;;8.05;;
65202;SDS011;51788;45.124;38.966;2023-12-04T10:30:37;13.18;;;8.57;;
65202;SDS011;51788;45.124;38.966;2023-12-04T10:33:05;8.07;;;6.80;;
65202;SDS011;51788;45.124;38.966;2023-12-04T10:35:34;20.15;;;6.97;;
65202;SDS011;51788;45.124;38.966;2023-12-04T10:38:04;12.85;;;6.60;;
65202;SDS011;51788;45.124;38.966;2023-12-04T10:40:32;7.13;;;6.40;;
65202;SDS011;51788;45.124;38.966;2023-12-04T10:43:10;14.43;;;7.72;;
65202;SDS011;51788;45.124;38.966;2023-12-04T10:45:37;9.77;;;4.95;;
65202;SDS011;51788;45.124;38.966;2023-12-04T10:48:05;17.92;;;7.72;;
65202;SDS011;51788;45.124;38.966;2023-12-04T10:50:32;9.23;;;7.45;;
65202;SDS011;51788;45.124;38.966;2023-12-04T10:53:05;16.55;;;7.25;;
65202;SDS011;51788;45.124;38.966;2023-12-04T10:55:36;12.20;;;7.30;;
65202;SDS011;51788;45.124;38.966;2023-12-04T10:58:06;13.23;;;9.00;;
65202;SDS011;51788;45.124;38.966;2023-12-04T11:00:35;11.18;;;7.63;;
65202;SDS011;51788;45.124;38.966;2023-12-04T11:03:08;12.02;;;8.65;;
65202;SDS011;51788;45.124;38.966;2023-12-04T11:05:38;18.23;;;9.40;;
65202;SDS011;51788;45.124;38.966;2023-12-04T11:08:06;15.38;;;9.45;;
65202;SDS011;51788;45.124;38.966;2023-12-04T11:10:37;9.65;;;6.03;;
65202;SDS011;51788;45.124;38.966;2023-12-04T11:13:10;17.17;;;6.75;;
65202;SDS011;51788;45.124;38.966;2023-12-04T11:15:42;7.10;;;5.55;;
65202;SDS011;51788;45.124;38.966;2023-12-04T11:18:13;14.70;;;7.80;;
65202;SDS011;51788;45.124;38.966;2023-12-04T11:20:45;5.20;;;4.80;;
65202;SDS011;51788;45.124;38.966;2023-12-04T11:23:16;16.73;;;8.57;;
65202;SDS011;51788;45.124;38.966;2023-12-04T11:25:43;11.30;;;8.98;;
65202;SDS011;51788;45.124;38.966;2023-12-04T11:28:10;7.82;;;7.05;;
65202;SDS011;51788;45.124;38.966;2023-12-04T11:30:37;26.33;;;10.82;;
65202;SDS011;51788;45.124;38.966;2023-12-04T11:33:04;17.95;;;10.55;;
65202;SDS011;51788;45.124;38.966;2023-12-04T11:35:30;12.43;;;8.38;;
65202;SDS011;51788;45.124;38.966;2023-12-04T11:37:59;9.48;;;6.57;;
65202;SDS011;51788;45.124;38.966;2023-12-04T11:40:25;9.68;;;6.68;;
65202;SDS011;51788;45.124;38.966;2023-12-04T11:42:53;8.52;;;6.75;;
65202;SDS011;51788;45.124;38.966;2023-12-04T11:45:19;8.52;;;5.35;;
65202;SDS011;51788;45.124;38.966;2023-12-04T11:47:56;10.82;;;7.50;;
65202;SDS011;51788;45.124;38.966;2023-12-04T11:50:26;20.05;;;7.18;;
65202;SDS011;51788;45.124;38.966;2023-12-04T11:52:52;9.23;;;7.75;;
65202;SDS011;51788;45.124;38.966;2023-12-04T11:55:20;17.50;;;6.95;;
65202;SDS011;51788;45.124;38.966;2023-12-04T11:57:48;19.90;;;9.57;;
65202;SDS011;51788;45.124;38.966;2023-12-04T12:02:47;10.05;;;7.43;;
65202;SDS011;51788;45.124;38.966;2023-12-04T12:05:19;20.42;;;7.90;;
65202;SDS011;51788;45.124;38.966;2023-12-04T12:07:46;14.95;;;10.77;;
65202;SDS011;51788;45.124;38.966;2023-12-04T12:10:12;17.90;;;10.15;;
65202;SDS011;51788;45.124;38.966;2023-12-04T12:12:45;13.00;;;7.50;;
65202;SDS011;51788;45.124;38.966;2023-12-04T12:15:12;13.07;;;6.07;;
65202;SDS011;51788;45.124;38.966;2023-12-04T12:17:39;6.18;;;5.20;;
65202;SDS011;51788;45.124;38.966;2023-12-04T12:22:36;8.82;;;6.38;;
65202;SDS011;51788;45.124;38.966;2023-12-04T12:25:07;13.52;;;9.65;;
65202;SDS011;51788;45.124;38.966;2023-12-04T12:27:33;14.98;;;9.20;;
65202;SDS011;51788;45.124;38.966;2023-12-04T12:30:00;8.60;;;7.35;;
65202;SDS011;51788;45.124;38.966;2023-12-04T12:32:26;9.63;;;7.35;;
65202;SDS011;51788;45.124;38.966;2023-12-04T12:34:53;8.30;;;7.50;;
65202;SDS011;51788;45.124;38.966;2023-12-04T12:37:20;10.32;;;5.32;;
65202;SDS011;51788;45.124;38.966;2023-12-04T12:39:47;14.05;;;7.97;;
65202;SDS011;51788;45.124;38.966;2023-12-04T12:44:53;11.57;;;7.15;;
65202;SDS011;51788;45.124;38.966;2023-12-04T12:47:20;7.85;;;5.97;;
65202;SDS011;51788;45.124;38.966;2023-12-04T12:49:47;16.48;;;7.97;;
65202;SDS011;51788;45.124;38.966;2023-12-04T12:52:14;5.32;;;4.82;;
65202;SDS011;51788;45.124;38.966;2023-12-04T12:54:41;6.43;;;5.50;;
65202;SDS011;51788;45.124;38.966;2023-12-04T12:57:08;10.57;;;6.05;;
65202;SDS011;51788;45.124;38.966;2023-12-04T12:59:35;5.90;;;4.57;;
65202;SDS011;51788;45.124;38.966;2023-12-04T13:02:01;5.30;;;4.82;;
65202;SDS011;51788;45.124;38.966;2023-12-04T13:04:36;7.50;;;5.03;;
65202;SDS011;51788;45.124;38.966;2023-12-04T13:07:08;6.75;;;4.88;;
65202;SDS011;51788;45.124;38.966;2023-12-04T13:09:35;15.48;;;4.97;;
65202;SDS011;51788;45.124;38.966;2023-12-04T13:12:05;6.47;;;4.68;;
65202;SDS011;51788;45.124;38.966;2023-12-04T13:14:33;5.70;;;4.45;;
65202;SDS011;51788;45.124;38.966;2023-12-04T13:17:03;4.53;;;4.03;;
65202;SDS011;51788;45.124;38.966;2023-12-04T13:19:29;3.78;;;3.38;;
65202;SDS011;51788;45.124;38.966;2023-12-04T13:21:57;6.35;;;4.93;;
65202;SDS011;51788;45.124;38.966;2023-12-04T13:24:23;15.43;;;5.78;;
65202;SDS011;51788;45.124;38.966;2023-12-04T13:26:49;4.25;;;3.85;;
65202;SDS011;51788;45.124;38.966;2023-12-04T13:29:15;7.47;;;5.88;;
65202;SDS011;51788;45.124;38.966;2023-12-04T13:31:42;5.05;;;4.40;;
65202;SDS011;51788;45.124;38.966;2023-12-04T13:34:08;4.55;;;4.18;;
65202;SDS011;51788;45.124;38.966;2023-12-04T13:36:36;6.30;;;5.68;;
65202;SDS011;51788;45.124;38.966;2023-12-04T13:39:02;7.45;;;6.20;;
65202;SDS011;51788;45.124;38.966;2023-12-04T13:41:30;4.82;;;4.25;;
65202;SDS011;51788;45.124;38.966;2023-12-04T13:44:15;6.18;;;5.28;;
65202;SDS011;51788;45.124;38.966;2023-12-04T13:46:41;5.88;;;5.38;;
65202;SDS011;51788;45.124;38.966;2023-12-04T13:49:07;8.38;;;6.40;;
65202;SDS011;51788;45.124;38.966;2023-12-04T13:51:33;6.05;;;5.55;;
65202;SDS011;51788;45.124;38.966;2023-12-04T13:54:05;6.10;;;5.43;;
65202;SDS011;51788;45.124;38.966;2023-12-04T13:56:45;9.68;;;6.55;;
65202;SDS011;51788;45.124;38.966;2023-12-04T13:59:19;5.72;;;5.20;;
65202;SDS011;51788;45.124;38.966;2023-12-04T14:01:47;6.95;;;5.47;;
65202;SDS011;51788;45.124;38.966;2023-12-04T14:04:17;6.28;;;5.32;;
65202;SDS011;51788;45.124;38.966;2023-12-04T14:06:43;8.75;;;6.93;;
65202;SDS011;51788;45.124;38.966;2023-12-04T14:09:10;8.95;;;6.75;;
65202;SDS011;51788;45.124;38.966;2023-12-04T14:11:41;10.20;;;8.50;;
65202;SDS011;51788;45.124;38.966;2023-12-04T14:14:09;11.27;;;8.20;;
65202;SDS011;51788;45.124;38.966;2023-12-04T14:16:35;9.23;;;5.20;;
65202;SDS011;51788;45.124;38.966;2023-12-04T14:19:01;8.80;;;7.90;;
65202;SDS011;51788;45.124;38.966;2023-12-04T14:21:27;9.82;;;7.88;;
65202;SDS011;51788;45.124;38.966;2023-12-04T14:23:54;14.10;;;10.90;;
65202;SDS011;51788;45.124;38.966;2023-12-04T14:26:20;8.50;;;7.15;;